Time;durP1;ratioP1;P1;durP2;ratioP2;P2;SDS_P1;SDS_P2;PMS_P1;PMS_P2;Temp;Humidity;BMP_temperature;BMP_pressure;BME280_temperature;BME280_humidity;BME280_pressure;Samples;Min_cycle;Max_cycle;Signal;HPM_P1;HPM_P2
2022/09/13 00:01:02;;;;;;;3.25;1.35;;;;;;;;;;4978551;28;20389;-82
2022/09/13 00:03:28;;;;;;;3.97;1.70;;;;;;;;;;4978428;28;20068;-81
2022/09/13 00:05:53;;;;;;;2.95;1.80;;;;;;;;;;4979699;28;20061;-81
2022/09/13 00:08:19;;;;;;;3.03;1.60;;;;;;;;;;4981504;28;20558;-80
2022/09/13 00:10:44;;;;;;;2.92;1.90;;;;;;;;;;4997488;28;20128;-80
2022/09/13 00:13:10;;;;;;;3.47;1.85;;;;;;;;;;4997379;28;20499;-81
2022/09/13 00:15:36;;;;;;;3.33;1.30;;;;;;;;;;5014094;28;20146;-80
2022/09/13 00:18:02;;;;;;;3.60;1.77;;;;;;;;;;4997400;28;20029;-80
2022/09/13 00:20:27;;;;;;;4.00;1.60;;;;;;;;;;5013768;28;20068;-81
2022/09/13 00:22:53;;;;;;;3.00;1.70;;;;;;;;;;4997029;28;20460;-81
2022/09/13 00:25:18;;;;;;;2.33;1.45;;;;;;;;;;5014021;28;20034;-81
2022/09/13 00:27:44;;;;;;;3.33;1.80;;;;;;;;;;4980965;28;20037;-80
2022/09/13 00:30:10;;;;;;;3.15;2.00;;;;;;;;;;4997382;28;20389;-80
2022/09/13 00:32:36;;;;;;;3.70;1.90;;;;;;;;;;4996976;28;20091;-80
2022/09/13 00:35:02;;;;;;;4.20;1.92;;;;;;;;;;5030513;28;20045;-81
2022/09/13 00:37:28;;;;;;;3.65;1.90;;;;;;;;;;5015967;28;20045;-81
2022/09/13 00:39:53;;;;;;;4.05;2.22;;;;;;;;;;5010021;28;20034;-81
2022/09/13 00:42:24;;;;;;;3.38;2.20;;;;;;;;;;5009797;28;20042;-81
2022/09/13 00:45:01;;;;;;;5.68;2.00;;;;;;;;;;5027035;28;20531;-80
2022/09/13 00:47:39;;;;;;;6.47;2.80;;;;;;;;;;4961970;28;20061;-81
2022/09/13 00:50:31;;;;;;;4.72;2.33;;;;;;;;;;5027245;28;20084;-81
2022/09/13 00:53:04;;;;;;;3.42;2.20;;;;;;;;;;5011007;28;20034;-81
2022/09/13 00:56:00;;;;;;;4.32;2.45;;;;;;;;;;4978111;28;20034;-80
2022/09/13 00:58:50;;;;;;;3.97;2.42;;;;;;;;;;5020393;28;20052;-81
2022/09/13 01:01:16;;;;;;;4.90;2.63;;;;;;;;;;5019343;28;20406;-81
2022/09/13 01:03:41;;;;;;;3.83;2.20;;;;;;;;;;5017016;28;20033;-81
2022/09/13 01:06:13;;;;;;;4.32;2.40;;;;;;;;;;5016752;28;20448;-81
2022/09/13 01:08:39;;;;;;;4.27;2.23;;;;;;;;;;5017076;28;20033;-80
2022/09/13 01:11:05;;;;;;;5.10;2.50;;;;;;;;;;5033240;28;20278;-80
2022/09/13 01:13:33;;;;;;;4.30;2.25;;;;;;;;;;5000035;28;20499;-81
2022/09/13 01:15:59;;;;;;;3.80;2.20;;;;;;;;;;5033233;28;20037;-80
2022/09/13 01:18:24;;;;;;;3.58;2.50;;;;;;;;;;5016746;28;20565;-80
2022/09/13 01:21:14;;;;;;;4.70;2.80;;;;;;;;;;5016986;28;20446;-81
2022/09/13 01:24:15;;;;;;;4.32;2.80;;;;;;;;;;5049421;28;20567;-80
2022/09/13 01:26:55;;;;;;;4.40;2.45;;;;;;;;;;5032981;28;20036;-80
2022/09/13 01:29:42;;;;;;;3.40;2.70;;;;;;;;;;5033035;28;20044;-81
2022/09/13 01:32:26;;;;;;;3.75;2.45;;;;;;;;;;5026480;28;20161;-81
2022/09/13 01:34:58;;;;;;;4.78;2.90;;;;;;;;;;4980470;28;20045;-81
2022/09/13 01:37:42;;;;;;;5.77;2.90;;;;;;;;;;5022243;28;20508;-81
2022/09/13 01:40:34;;;;;;;3.78;2.33;;;;;;;;;;4986650;28;20385;-81
2022/09/13 01:43:06;;;;;;;4.85;3.10;;;;;;;;;;4985803;28;20037;-81
2022/09/13 01:45:35;;;;;;;4.23;2.87;;;;;;;;;;5016560;28;20064;-81
2022/09/13 01:48:33;;;;;;;4.00;2.72;;;;;;;;;;5016532;28;20383;-80
2022/09/13 01:51:22;;;;;;;5.13;2.58;;;;;;;;;;5010791;28;20049;-81
2022/09/13 01:53:52;;;;;;;5.82;2.65;;;;;;;;;;4993408;28;20045;-81
2022/09/13 01:56:28;;;;;;;4.20;2.42;;;;;;;;;;4997049;28;20046;-81
2022/09/13 01:59:18;;;;;;;3.47;2.30;;;;;;;;;;5013206;28;20117;-81
2022/09/13 02:01:49;;;;;;;3.85;2.30;;;;;;;;;;5022590;28;20065;-80
2022/09/13 02:04:23;;;;;;;4.53;2.78;;;;;;;;;;5000361;28;20092;-81
2022/09/13 02:07:08;;;;;;;4.22;2.97;;;;;;;;;;5016493;28;20083;-81
2022/09/13 02:09:35;;;;;;;3.10;1.90;;;;;;;;;;4999112;28;20037;-81
2022/09/13 02:12:05;;;;;;;3.65;2.28;;;;;;;;;;4983821;28;20072;-81
2022/09/13 02:14:35;;;;;;;4.05;2.33;;;;;;;;;;5016433;28;20052;-80
2022/09/13 02:17:17;;;;;;;6.32;2.60;;;;;;;;;;4999904;28;20549;-80
2022/09/13 02:19:48;;;;;;;3.47;2.00;;;;;;;;;;4999210;28;20029;-80
2022/09/13 02:22:15;;;;;;;5.70;2.78;;;;;;;;;;4999908;28;20084;-81
2022/09/13 02:24:41;;;;;;;4.95;2.55;;;;;;;;;;4999517;28;20065;-81
2022/09/13 02:27:12;;;;;;;3.47;2.05;;;;;;;;;;5032697;28;20040;-81
2022/09/13 02:29:39;;;;;;;3.40;2.40;;;;;;;;;;4999433;28;20072;-80
2022/09/13 02:32:41;;;;;;;4.03;1.95;;;;;;;;;;4998886;28;20045;-80
2022/09/13 02:35:34;;;;;;;3.30;2.17;;;;;;;;;;5032040;28;20041;-81
2022/09/13 02:38:04;;;;;;;5.20;2.38;;;;;;;;;;4968987;28;20087;-80
2022/09/13 02:40:33;;;;;;;4.80;2.78;;;;;;;;;;5015519;28;20044;-80
2022/09/13 02:43:13;;;;;;;4.00;2.15;;;;;;;;;;5015711;28;20072;-80
2022/09/13 02:46:05;;;;;;;4.90;2.38;;;;;;;;;;5015375;28;20126;-80
2022/09/13 02:49:15;;;;;;;3.55;1.92;;;;;;;;;;4999171;28;20087;-81
2022/09/13 02:51:47;;;;;;;3.95;1.40;;;;;;;;;;5015074;28;20041;-81
2022/09/13 02:54:24;;;;;;;3.60;1.80;;;;;;;;;;4998746;28;20038;-80
2022/09/13 02:56:58;;;;;;;3.03;1.73;;;;;;;;;;4999250;28;20064;-81
2022/09/13 02:59:24;;;;;;;4.68;2.05;;;;;;;;;;4999015;28;20385;-80
2022/09/13 03:02:07;;;;;;;3.83;1.98;;;;;;;;;;4995191;28;20116;-80
2022/09/13 03:04:33;;;;;;;3.28;2.05;;;;;;;;;;4995907;28;20501;-80
2022/09/13 03:06:59;;;;;;;4.00;1.90;;;;;;;;;;4995210;28;20034;-81
2022/09/13 03:09:24;;;;;;;3.33;1.75;;;;;;;;;;4979149;28;20030;-81
2022/09/13 03:12:21;;;;;;;3.83;1.73;;;;;;;;;;4995049;28;20044;-81
2022/09/13 03:14:55;;;;;;;2.63;1.60;;;;;;;;;;4995144;28;20119;-80
2022/09/13 03:17:33;;;;;;;2.90;1.70;;;;;;;;;;4979471;28;20474;-80
2022/09/13 03:20:09;;;;;;;3.35;1.75;;;;;;;;;;4994928;28;20531;-81
2022/09/13 03:22:46;;;;;;;2.55;1.63;;;;;;;;;;4995759;28;20038;-81
2022/09/13 03:25:33;;;;;;;2.38;1.35;;;;;;;;;;4980056;28;20041;-80
2022/09/13 03:28:03;;;;;;;2.63;1.60;;;;;;;;;;4997588;28;20048;-80
2022/09/13 03:30:29;;;;;;;3.10;1.70;;;;;;;;;;4998101;28;20053;-80
2022/09/13 03:33:10;;;;;;;3.40;1.70;;;;;;;;;;5014452;28;20108;-80
2022/09/13 03:35:51;;;;;;;3.10;1.90;;;;;;;;;;4998141;28;20036;-81
2022/09/13 03:38:31;;;;;;;2.40;1.40;;;;;;;;;;4998063;28;20025;-80
2022/09/13 03:40:59;;;;;;;3.72;1.63;;;;;;;;;;4998758;28;20117;-80
2022/09/13 03:43:35;;;;;;;3.60;1.60;;;;;;;;;;4998169;28;20041;-80
2022/09/13 03:46:05;;;;;;;4.97;1.50;;;;;;;;;;5000659;28;20068;-82
2022/09/13 03:48:35;;;;;;;4.38;1.20;;;;;;;;;;4981958;28;20025;-81
2022/09/13 03:51:01;;;;;;;2.78;1.67;;;;;;;;;;4981782;28;20041;-80
2022/09/13 03:53:27;;;;;;;3.05;1.40;;;;;;;;;;4981459;28;20075;-80
2022/09/13 03:55:53;;;;;;;2.08;1.20;;;;;;;;;;4981556;28;20454;-80
2022/09/13 03:58:19;;;;;;;2.80;1.20;;;;;;;;;;4965883;28;20033;-81
2022/09/13 04:00:45;;;;;;;1.95;1.40;;;;;;;;;;4965534;28;20095;-81
2022/09/13 04:03:11;;;;;;;3.15;1.30;;;;;;;;;;5013310;28;20037;-81
2022/09/13 04:05:36;;;;;;;3.15;1.10;;;;;;;;;;4997281;28;20076;-81
2022/09/13 04:08:04;;;;;;;3.58;1.42;;;;;;;;;;4997132;28;20108;-80
2022/09/13 04:10:30;;;;;;;2.22;1.40;;;;;;;;;;5014525;28;20041;-81
2022/09/13 04:12:56;;;;;;;2.35;1.20;;;;;;;;;;4997802;28;20033;-80
2022/09/13 04:15:23;;;;;;;1.65;1.00;;;;;;;;;;4997865;28;20048;-80
2022/09/13 04:17:49;;;;;;;2.13;1.25;;;;;;;;;;4998004;28;20037;-81
2022/09/13 04:20:14;;;;;;;2.75;1.00;;;;;;;;;;5013399;28;20080;-81
2022/09/13 04:22:41;;;;;;;1.70;1.17;;;;;;;;;;5013659;28;20029;-81
2022/09/13 04:25:06;;;;;;;2.85;1.40;;;;;;;;;;5014260;28;20060;-80
2022/09/13 04:27:32;;;;;;;2.65;1.30;;;;;;;;;;4997726;28;20060;-80
2022/09/13 04:29:57;;;;;;;2.15;1.45;;;;;;;;;;5030142;28;20199;-81
2022/09/13 04:32:23;;;;;;;2.33;1.17;;;;;;;;;;5030227;28;20072;-81
2022/09/13 04:34:48;;;;;;;3.95;1.42;;;;;;;;;;5013840;28;20486;-81
2022/09/13 04:37:14;;;;;;;3.53;1.48;;;;;;;;;;5029657;28;20133;-80
2022/09/13 04:39:39;;;;;;;1.98;0.93;;;;;;;;;;4981246;28;20451;-81
2022/09/13 04:42:06;;;;;;;2.03;1.00;;;;;;;;;;4980675;28;20466;-81
2022/09/13 04:44:32;;;;;;;1.67;1.20;;;;;;;;;;4981509;28;20407;-81
2022/09/13 04:46:57;;;;;;;2.20;1.23;;;;;;;;;;4981563;28;20044;-81
2022/09/13 04:49:23;;;;;;;1.98;1.17;;;;;;;;;;4980884;28;20104;-81
2022/09/13 04:51:48;;;;;;;1.90;1.23;;;;;;;;;;4981122;28;20033;-80
2022/09/13 04:54:14;;;;;;;3.05;0.93;;;;;;;;;;4965005;28;20455;-80
2022/09/13 04:56:39;;;;;;;3.92;1.55;;;;;;;;;;4981448;28;20450;-80
2022/09/13 04:59:05;;;;;;;2.90;1.30;;;;;;;;;;4980936;28;20061;-81
2022/09/13 05:01:31;;;;;;;2.78;1.55;;;;;;;;;;4985110;28;20036;-81
2022/09/13 05:03:57;;;;;;;2.22;1.30;;;;;;;;;;4997075;28;20112;-80
2022/09/13 05:06:22;;;;;;;7.18;1.60;;;;;;;;;;4996826;28;20164;-81
2022/09/13 05:08:53;;;;;;;2.28;1.42;;;;;;;;;;5016628;28;20040;-81
2022/09/13 05:11:22;;;;;;;3.97;1.60;;;;;;;;;;5001016;28;20095;-81
2022/09/13 05:13:53;;;;;;;2.50;1.23;;;;;;;;;;5000666;28;20033;-81
2022/09/13 05:16:18;;;;;;;2.65;1.10;;;;;;;;;;5001341;28;20099;-81
2022/09/13 05:18:44;;;;;;;3.30;1.75;;;;;;;;;;5000875;28;20033;-80
2022/09/13 05:21:09;;;;;;;3.53;1.40;;;;;;;;;;5000948;28;20048;-80
2022/09/13 05:23:35;;;;;;;3.08;1.85;;;;;;;;;;5000439;28;20496;-80
2022/09/13 05:26:02;;;;;;;2.30;1.25;;;;;;;;;;5000694;28;20365;-81
2022/09/13 05:28:29;;;;;;;6.50;1.50;;;;;;;;;;5000748;28;20029;-81
2022/09/13 05:31:02;;;;;;;7.65;2.03;;;;;;;;;;5016888;28;20487;-82
2022/09/13 05:33:29;;;;;;;5.82;1.95;;;;;;;;;;5001089;28;20034;-81
2022/09/13 05:35:55;;;;;;;3.22;1.52;;;;;;;;;;5000642;28;20069;-81
2022/09/13 05:38:20;;;;;;;7.43;1.90;;;;;;;;;;5016600;28;20440;-81
2022/09/13 05:40:46;;;;;;;8.60;2.45;;;;;;;;;;4970566;28;20037;-82
2022/09/13 05:43:11;;;;;;;4.95;2.00;;;;;;;;;;4984755;28;20067;-83
2022/09/13 05:45:38;;;;;;;5.05;1.77;;;;;;;;;;4967472;28;20403;-82
2022/09/13 05:48:03;;;;;;;5.40;1.58;;;;;;;;;;4983780;28;20029;-82
2022/09/13 05:50:29;;;;;;;3.45;1.85;;;;;;;;;;4984243;28;20048;-81
2022/09/13 05:52:54;;;;;;;6.68;1.80;;;;;;;;;;4983819;28;20439;-82
2022/09/13 05:55:20;;;;;;;4.40;1.88;;;;;;;;;;4968095;28;20033;-82
2022/09/13 05:57:46;;;;;;;5.45;1.63;;;;;;;;;;4984417;28;20065;-81
2022/09/13 06:00:12;;;;;;;7.68;2.58;;;;;;;;;;4983663;28;20084;-82
2022/09/13 06:02:38;;;;;;;6.28;1.70;;;;;;;;;;4994212;28;20034;-81
2022/09/13 06:05:03;;;;;;;10.93;2.00;;;;;;;;;;4979500;28;20056;-82
2022/09/13 06:07:29;;;;;;;9.30;2.03;;;;;;;;;;4964124;28;20060;-82
2022/09/13 06:09:54;;;;;;;12.60;2.80;;;;;;;;;;4979684;28;20045;-82
2022/09/13 06:12:20;;;;;;;8.65;2.55;;;;;;;;;;4966196;28;20117;-82
2022/09/13 06:14:45;;;;;;;9.70;2.42;;;;;;;;;;5012726;28;20103;-81
2022/09/13 06:17:11;;;;;;;9.27;2.00;;;;;;;;;;5012928;28;20038;-81
2022/09/13 06:19:38;;;;;;;7.50;2.20;;;;;;;;;;4978870;28;20400;-82
2022/09/13 06:22:05;;;;;;;5.07;2.00;;;;;;;;;;4964005;28;20412;-83
2022/09/13 06:24:30;;;;;;;8.15;2.72;;;;;;;;;;4996218;28;20042;-83
2022/09/13 06:26:56;;;;;;;6.20;2.30;;;;;;;;;;4979929;28;20044;-82
2022/09/13 06:29:22;;;;;;;82.07;59.25;;;;;;;;;;4979760;28;20038;-83
2022/09/13 06:31:47;;;;;;;60.72;41.30;;;;;;;;;;5013315;28;20040;-85
2022/09/13 06:34:14;;;;;;;80.30;50.20;;;;;;;;;;5015588;28;20068;-84
2022/09/13 06:36:39;;;;;;;35.95;23.58;;;;;;;;;;4999568;28;20033;-83
2022/09/13 06:39:05;;;;;;;23.50;14.18;;;;;;;;;;5015037;28;20079;-84
2022/09/13 06:41:31;;;;;;;22.42;14.02;;;;;;;;;;4999325;28;20393;-83
2022/09/13 06:43:57;;;;;;;19.88;12.35;;;;;;;;;;4998956;28;20041;-84
2022/09/13 06:46:25;;;;;;;16.15;9.93;;;;;;;;;;5015904;28;20415;-84
2022/09/13 06:48:52;;;;;;;17.52;10.38;;;;;;;;;;4998818;28;20033;-85
2022/09/13 06:51:19;;;;;;;14.00;9.18;;;;;;;;;;4999328;28;20052;-84
2022/09/13 06:53:46;;;;;;;16.67;9.07;;;;;;;;;;4999114;28;20111;-84
2022/09/13 06:56:16;;;;;;;14.82;8.98;;;;;;;;;;4999333;28;20404;-85
2022/09/13 06:58:43;;;;;;;12.27;7.68;;;;;;;;;;5015198;28;20044;-84
2022/09/13 07:01:11;;;;;;;14.57;8.88;;;;;;;;;;4995634;28;20100;-84
2022/09/13 07:03:47;;;;;;;11.18;7.28;;;;;;;;;;4995867;28;20069;-83
2022/09/13 07:06:17;;;;;;;12.38;7.53;;;;;;;;;;4995632;28;20038;-84
2022/09/13 07:08:43;;;;;;;10.48;6.38;;;;;;;;;;4995607;28;20058;-84
2022/09/13 07:11:10;;;;;;;10.63;6.65;;;;;;;;;;4995693;28;20113;-84
2022/09/13 07:13:36;;;;;;;11.38;6.82;;;;;;;;;;4995342;28;20042;-84
2022/09/13 07:16:06;;;;;;;12.38;6.90;;;;;;;;;;4979084;28;20069;-84
2022/09/13 07:18:31;;;;;;;11.27;5.63;;;;;;;;;;4995813;28;20523;-84
2022/09/13 07:21:02;;;;;;;9.13;5.10;;;;;;;;;;4979219;28;20030;-84
2022/09/13 07:23:30;;;;;;;8.32;5.50;;;;;;;;;;4995670;28;20040;-84
2022/09/13 07:26:00;;;;;;;8.18;5.63;;;;;;;;;;4963037;28;20033;-84
2022/09/13 07:28:30;;;;;;;9.10;5.78;;;;;;;;;;4996411;28;20029;-85
2022/09/13 07:30:57;;;;;;;7.00;5.10;;;;;;;;;;4998456;28;20032;-84
2022/09/13 07:33:24;;;;;;;8.05;4.55;;;;;;;;;;4998375;28;20095;-84
2022/09/13 07:35:56;;;;;;;7.88;4.38;;;;;;;;;;5030838;28;20464;-84
2022/09/13 07:38:22;;;;;;;10.85;4.55;;;;;;;;;;5014379;28;20095;-84
2022/09/13 07:40:58;;;;;;;7.45;4.32;;;;;;;;;;4966088;28;20033;-84
2022/09/13 07:43:27;;;;;;;10.02;4.72;;;;;;;;;;4965947;28;20569;-84
2022/09/13 07:46:03;;;;;;;8.00;4.38;;;;;;;;;;4998373;28;20073;-84
2022/09/13 07:48:31;;;;;;;8.77;4.18;;;;;;;;;;4966006;28;20473;-86
2022/09/13 07:51:03;;;;;;;7.07;4.28;;;;;;;;;;4966315;28;20044;-84
2022/09/13 07:53:29;;;;;;;6.10;4.18;;;;;;;;;;4989462;28;20087;-84
2022/09/13 07:56:05;;;;;;;6.30;3.70;;;;;;;;;;4981852;28;20523;-84
2022/09/13 07:58:32;;;;;;;6.45;3.95;;;;;;;;;;4982370;28;20033;-84
2022/09/13 08:01:27;;;;;;;5.45;3.20;;;;;;;;;;4981634;28;20067;-84
2022/09/13 08:03:53;;;;;;;7.30;3.05;;;;;;;;;;5012271;28;20045;-83
2022/09/13 08:06:19;;;;;;;5.20;3.20;;;;;;;;;;4997904;28;20037;-84
2022/09/13 08:08:45;;;;;;;6.47;3.00;;;;;;;;;;4998220;28;20052;-84
2022/09/13 08:11:17;;;;;;;5.63;3.45;;;;;;;;;;4997663;28;20499;-83
2022/09/13 08:13:43;;;;;;;7.32;3.55;;;;;;;;;;4998427;28;20048;-84
2022/09/13 08:16:08;;;;;;;5.95;3.20;;;;;;;;;;4997792;28;20543;-84
2022/09/13 08:18:33;;;;;;;6.00;3.88;;;;;;;;;;4997705;28;20038;-83
2022/09/13 08:20:59;;;;;;;4.95;2.83;;;;;;;;;;4981505;28;20038;-83
2022/09/13 08:23:25;;;;;;;6.45;3.03;;;;;;;;;;4981471;28;20488;-83
2022/09/13 08:25:50;;;;;;;11.55;3.60;;;;;;;;;;4997512;28;20046;-83
2022/09/13 08:28:17;;;;;;;7.97;3.95;;;;;;;;;;4981312;28;20045;-83
2022/09/13 08:30:42;;;;;;;8.45;2.97;;;;;;;;;;4981153;28;20035;-82
2022/09/13 08:33:08;;;;;;;5.75;3.30;;;;;;;;;;5030391;28;20606;-82
2022/09/13 08:35:34;;;;;;;14.95;4.00;;;;;;;;;;5014060;28;20052;-84
2022/09/13 08:37:59;;;;;;;7.43;3.47;;;;;;;;;;5013599;28;20053;-83
2022/09/13 08:40:28;;;;;;;7.45;3.15;;;;;;;;;;4965359;28;20361;-83
2022/09/13 08:43:08;;;;;;;7.90;3.47;;;;;;;;;;4982928;28;20038;-83
2022/09/13 08:45:34;;;;;;;9.95;3.80;;;;;;;;;;5002089;28;20049;-83
2022/09/13 08:48:10;;;;;;;8.65;3.60;;;;;;;;;;4985304;28;20112;-86
2022/09/13 08:50:35;;;;;;;11.02;3.92;;;;;;;;;;5002978;28;20033;-84
2022/09/13 08:53:23;;;;;;;22.80;4.95;;;;;;;;;;4968770;28;20087;-84
2022/09/13 08:55:48;;;;;;;7.57;4.18;;;;;;;;;;5017337;28;20046;-80
2022/09/13 08:58:29;;;;;;;11.65;4.18;;;;;;;;;;5034383;28;20052;-82
2022/09/13 09:01:07;;;;;;;14.52;4.30;;;;;;;;;;5001129;28;20064;-84
2022/09/13 09:04:06;;;;;;;8.88;3.53;;;;;;;;;;4985760;28;20033;-84
2022/09/13 09:06:33;;;;;;;8.75;3.88;;;;;;;;;;4999761;28;20530;-85
2022/09/13 09:09:03;;;;;;;10.77;4.28;;;;;;;;;;5000842;28;20034;-83
2022/09/13 09:11:47;;;;;;;10.23;3.90;;;;;;;;;;5001150;28;20507;-82
2022/09/13 09:14:31;;;;;;;9.18;3.78;;;;;;;;;;5000900;28;20495;-83
2022/09/13 09:17:05;;;;;;;8.48;4.20;;;;;;;;;;4985512;28;20390;-85
2022/09/13 09:19:35;;;;;;;7.75;4.20;;;;;;;;;;5017702;28;20061;-85
2022/09/13 09:22:03;;;;;;;8.82;3.63;;;;;;;;;;5000997;28;20128;-84
2022/09/13 09:24:31;;;;;;;10.75;4.53;;;;;;;;;;4985108;28;20044;-84
2022/09/13 09:26:57;;;;;;;9.15;4.10;;;;;;;;;;4983863;28;20068;-84
2022/09/13 09:29:24;;;;;;;7.57;3.88;;;;;;;;;;5001212;28;20037;-84
2022/09/13 09:32:28;;;;;;;6.57;3.45;;;;;;;;;;4983578;28;20037;-84
2022/09/13 09:35:27;;;;;;;8.55;4.55;;;;;;;;;;4997494;28;20124;-84
2022/09/13 09:38:23;;;;;;;9.60;4.25;;;;;;;;;;5009814;28;20033;-84
2022/09/13 09:40:50;;;;;;;6.28;4.32;;;;;;;;;;5017016;28;20033;-84
2022/09/13 09:43:27;;;;;;;10.85;5.32;;;;;;;;;;4968138;28;20061;-84
2022/09/13 09:45:52;;;;;;;10.32;4.95;;;;;;;;;;4968357;28;20060;-84
2022/09/13 09:48:21;;;;;;;8.95;3.97;;;;;;;;;;4967809;28;20041;-84
2022/09/13 09:50:49;;;;;;;10.93;4.65;;;;;;;;;;4968612;28;20076;-84
2022/09/13 09:53:52;;;;;;;8.63;4.72;;;;;;;;;;4967716;28;20041;-83
2022/09/13 09:56:51;;;;;;;11.50;4.78;;;;;;;;;;5004243;28;20128;-84
2022/09/13 09:59:36;;;;;;;10.43;4.88;;;;;;;;;;4984287;28;20045;-84
2022/09/13 10:02:11;;;;;;;8.90;4.97;;;;;;;;;;4975955;28;20029;-83
2022/09/13 10:04:36;;;;;;;7.45;4.80;;;;;;;;;;5001041;28;20034;-84
2022/09/13 10:07:10;;;;;;;9.10;5.05;;;;;;;;;;4983702;28;20075;-83
2022/09/13 10:09:37;;;;;;;9.45;4.40;;;;;;;;;;4999941;28;20053;-84
2022/09/13 10:12:04;;;;;;;11.93;5.15;;;;;;;;;;5016603;28;20117;-84
2022/09/13 10:14:43;;;;;;;13.63;5.30;;;;;;;;;;4999969;28;20041;-84
2022/09/13 10:17:18;;;;;;;9.85;4.85;;;;;;;;;;5000212;28;20029;-83
2022/09/13 10:19:56;;;;;;;9.93;4.82;;;;;;;;;;4999979;28;20408;-83
2022/09/13 10:22:22;;;;;;;8.23;4.47;;;;;;;;;;4999906;28;20119;-84
2022/09/13 10:24:49;;;;;;;7.20;4.68;;;;;;;;;;4983331;28;20504;-84
2022/09/13 10:27:27;;;;;;;9.57;4.35;;;;;;;;;;5000168;28;20037;-84
2022/09/13 10:29:58;;;;;;;6.95;4.18;;;;;;;;;;5016674;28;20397;-83
2022/09/13 10:32:24;;;;;;;9.13;4.13;;;;;;;;;;4999801;28;20458;-83
2022/09/13 10:34:49;;;;;;;6.97;3.40;;;;;;;;;;4999770;28;20052;-83
2022/09/13 10:37:21;;;;;;;7.47;4.72;;;;;;;;;;5031752;28;20515;-83
2022/09/13 10:39:56;;;;;;;7.78;4.22;;;;;;;;;;4999973;28;20032;-83
2022/09/13 10:42:23;;;;;;;8.95;4.28;;;;;;;;;;4983556;28;20041;-83
2022/09/13 10:44:56;;;;;;;6.68;3.55;;;;;;;;;;4982896;28;20691;-83
2022/09/13 10:47:38;;;;;;;7.78;4.13;;;;;;;;;;4967829;28;20069;-83
2022/09/13 10:50:23;;;;;;;7.95;4.05;;;;;;;;;;4998685;28;20412;-84
2022/09/13 10:52:54;;;;;;;5.72;3.88;;;;;;;;;;4983200;28;20037;-83
2022/09/13 10:55:27;;;;;;;7.03;3.55;;;;;;;;;;4998817;28;20132;-83
2022/09/13 10:58:02;;;;;;;8.02;3.97;;;;;;;;;;5015244;28;20029;-83
2022/09/13 11:00:41;;;;;;;8.02;3.63;;;;;;;;;;5015289;28;20037;-83
2022/09/13 11:03:31;;;;;;;7.75;3.30;;;;;;;;;;5032304;28;20029;-83
2022/09/13 11:06:05;;;;;;;7.60;3.20;;;;;;;;;;5030903;28;20033;-82
2022/09/13 11:08:40;;;;;;;7.85;3.50;;;;;;;;;;5031863;28;20057;-83
2022/09/13 11:12:00;;;;;;;8.10;4.18;;;;;;;;;;4999174;28;20083;-82
2022/09/13 11:14:37;;;;;;;7.80;3.45;;;;;;;;;;4974823;28;20070;-83
2022/09/13 11:17:08;;;;;;;6.95;3.67;;;;;;;;;;4990728;28;20053;-83
2022/09/13 11:19:42;;;;;;;5.33;3.23;;;;;;;;;;5031000;28;20041;-83
2022/09/13 11:22:29;;;;;;;6.43;3.25;;;;;;;;;;5031383;28;20030;-83
2022/09/13 11:25:16;;;;;;;4.15;2.60;;;;;;;;;;5007647;28;20041;-83
2022/09/13 11:27:50;;;;;;;6.90;3.47;;;;;;;;;;4998926;28;20028;-83
2022/09/13 11:30:19;;;;;;;4.80;2.50;;;;;;;;;;5014508;28;20124;-83
2022/09/13 11:32:54;;;;;;;6.53;3.00;;;;;;;;;;5014570;28;20041;-83
2022/09/13 11:35:42;;;;;;;5.63;3.03;;;;;;;;;;5014402;28;20510;-82
2022/09/13 11:38:30;;;;;;;7.63;3.13;;;;;;;;;;5014239;28;20033;-83
2022/09/13 11:41:22;;;;;;;6.43;2.88;;;;;;;;;;4969833;28;20140;-83
2022/09/13 11:44:32;;;;;;;5.30;3.45;;;;;;;;;;4981929;28;20091;-83
2022/09/13 11:47:03;;;;;;;5.13;2.83;;;;;;;;;;4951339;29;20043;-83
2022/09/13 11:49:38;;;;;;;7.00;2.80;;;;;;;;;;5005649;28;20041;-83
2022/09/13 11:52:22;;;;;;;4.30;2.60;;;;;;;;;;5013982;28;20040;-83
2022/09/13 11:54:56;;;;;;;7.60;3.33;;;;;;;;;;4997710;28;20029;-83
2022/09/13 11:57:51;;;;;;;5.28;2.28;;;;;;;;;;5014243;28;20087;-84
2022/09/13 12:00:22;;;;;;;5.70;2.60;;;;;;;;;;5011389;28;20487;-83
2022/09/13 12:02:59;;;;;;;5.72;2.90;;;;;;;;;;4992275;28;20042;-83
2022/09/13 12:05:27;;;;;;;6.68;2.45;;;;;;;;;;4993136;28;20503;-83
2022/09/13 12:08:19;;;;;;;3.85;2.25;;;;;;;;;;4981707;28;20030;-84
2022/09/13 12:10:47;;;;;;;3.88;2.15;;;;;;;;;;5014383;28;20191;-84
2022/09/13 12:13:20;;;;;;;3.95;2.05;;;;;;;;;;5013503;28;20041;-83
2022/09/13 12:15:45;;;;;;;4.35;2.08;;;;;;;;;;4998033;28;20049;-83
2022/09/13 12:18:11;;;;;;;3.90;1.90;;;;;;;;;;4980554;28;20040;-83
2022/09/13 12:20:53;;;;;;;4.03;2.50;;;;;;;;;;5030250;28;20099;-83
2022/09/13 12:23:26;;;;;;;4.10;1.90;;;;;;;;;;4997845;28;20045;-83
2022/09/13 12:26:07;;;;;;;4.00;2.10;;;;;;;;;;4997909;28;20029;-83
2022/09/13 12:28:45;;;;;;;5.75;2.22;;;;;;;;;;4981776;28;20512;-82
2022/09/13 12:31:18;;;;;;;4.55;2.25;;;;;;;;;;4981296;28;20037;-83
2022/09/13 12:33:44;;;;;;;4.88;2.28;;;;;;;;;;4997563;28;20104;-83
2022/09/13 12:36:28;;;;;;;4.20;2.45;;;;;;;;;;4997376;28;20037;-83
2022/09/13 12:39:22;;;;;;;3.83;1.92;;;;;;;;;;5010618;28;20044;-83
2022/09/13 12:42:10;;;;;;;3.95;2.13;;;;;;;;;;5027109;28;20037;-83
2022/09/13 12:44:53;;;;;;;4.95;2.05;;;;;;;;;;5011963;28;20060;-83
2022/09/13 12:47:36;;;;;;;3.58;2.08;;;;;;;;;;4979397;28;20056;-83
2022/09/13 12:50:07;;;;;;;4.50;2.47;;;;;;;;;;4963436;28;20029;-82
2022/09/13 12:53:01;;;;;;;3.38;2.15;;;;;;;;;;5010255;28;20500;-83
2022/09/13 12:55:39;;;;;;;4.07;2.00;;;;;;;;;;5005455;28;20064;-83
2022/09/13 12:58:49;;;;;;;3.05;1.88;;;;;;;;;;5011225;28;20037;-83
2022/09/13 13:01:16;;;;;;;2.90;1.80;;;;;;;;;;5000680;28;20184;-83
2022/09/13 13:03:48;;;;;;;3.80;1.67;;;;;;;;;;5013433;28;20038;-83
2022/09/13 13:06:38;;;;;;;2.97;1.23;;;;;;;;;;5013433;28;20059;-82
2022/09/13 13:09:06;;;;;;;3.80;1.98;;;;;;;;;;5017416;28;20081;-83
2022/09/13 13:11:44;;;;;;;4.80;2.13;;;;;;;;;;5013678;28;20045;-84
2022/09/13 13:14:25;;;;;;;4.35;1.60;;;;;;;;;;4997459;28;20029;-84
2022/09/13 13:16:52;;;;;;;4.30;1.65;;;;;;;;;;4997117;28;20069;-85
2022/09/13 13:19:31;;;;;;;2.75;1.45;;;;;;;;;;5013696;28;20396;-85
2022/09/13 13:22:35;;;;;;;3.40;1.80;;;;;;;;;;4997438;28;20064;-85
2022/09/13 13:25:43;;;;;;;7.57;2.15;;;;;;;;;;5013664;28;20029;-86
2022/09/13 13:28:46;;;;;;;3.42;1.70;;;;;;;;;;5028700;28;20038;-85
2022/09/13 13:31:28;;;;;;;2.53;1.30;;;;;;;;;;5016817;28;20064;-86
2022/09/13 13:33:55;;;;;;;3.03;1.58;;;;;;;;;;5033708;28;20034;-86
2022/09/13 13:36:34;;;;;;;3.85;1.73;;;;;;;;;;5017374;28;20083;-85
2022/09/13 13:39:01;;;;;;;4.25;2.00;;;;;;;;;;4986542;28;20041;-86
2022/09/13 13:41:34;;;;;;;4.53;1.60;;;;;;;;;;5001125;28;20084;-86
2022/09/13 13:44:01;;;;;;;3.40;1.65;;;;;;;;;;5016156;28;20065;-86
2022/09/13 13:46:30;;;;;;;2.70;1.42;;;;;;;;;;5000804;28;20508;-86
2022/09/13 13:49:16;;;;;;;3.75;1.85;;;;;;;;;;4984570;28;20483;-85
2022/09/13 13:51:43;;;;;;;3.30;1.40;;;;;;;;;;5051933;28;20033;-86
2022/09/13 13:54:28;;;;;;;3.90;1.85;;;;;;;;;;5000489;28;20041;-85
2022/09/13 13:56:54;;;;;;;3.05;1.75;;;;;;;;;;5001003;28;20040;-86
2022/09/13 13:59:29;;;;;;;3.75;1.88;;;;;;;;;;5000537;28;20135;-85
2022/09/13 14:01:58;;;;;;;3.33;1.40;;;;;;;;;;4993187;28;20041;-85
2022/09/13 14:05:00;;;;;;;4.88;2.03;;;;;;;;;;5000396;28;20049;-86
2022/09/13 14:07:35;;;;;;;;;;;;;;;;;;5041790;28;20120;-86
2022/09/13 14:10:19;;;;;;;4.10;1.65;;;;;;;;;;4996831;28;20331;-85
2022/09/13 14:13:17;;;;;;;3.05;1.50;;;;;;;;;;5006286;28;20025;-85
2022/09/13 14:15:58;;;;;;;2.38;1.15;;;;;;;;;;5032031;28;20041;-85
2022/09/13 14:18:34;;;;;;;3.13;1.30;;;;;;;;;;4999394;28;20053;-85
2022/09/13 14:21:18;;;;;;;3.67;1.60;;;;;;;;;;4999883;28;20033;-86
2022/09/13 14:23:44;;;;;;;3.28;1.40;;;;;;;;;;4982061;28;20037;-85
2022/09/13 14:26:09;;;;;;;4.03;1.30;;;;;;;;;;4983397;28;20034;-85
2022/09/13 14:28:35;;;;;;;3.22;1.70;;;;;;;;;;4981859;28;20038;-85
2022/09/13 14:31:00;;;;;;;4.03;1.40;;;;;;;;;;5031419;28;20463;-85
2022/09/13 14:33:35;;;;;;;2.30;1.05;;;;;;;;;;4999916;28;20120;-84
2022/09/13 14:36:14;;;;;;;2.92;1.30;;;;;;;;;;4984766;28;20030;-86
2022/09/13 14:38:46;;;;;;;4.20;1.35;;;;;;;;;;5001063;28;20044;-84
2022/09/13 14:41:19;;;;;;;4.13;1.40;;;;;;;;;;4999474;28;20121;-86
2022/09/13 14:43:45;;;;;;;5.40;1.80;;;;;;;;;;4999833;28;20076;-86
2022/09/13 14:46:26;;;;;;;3.67;1.95;;;;;;;;;;4999201;28;20033;-86
2022/09/13 14:48:53;;;;;;;3.97;2.15;;;;;;;;;;5016706;28;20116;-85
2022/09/13 14:51:23;;;;;;;4.57;1.80;;;;;;;;;;4999684;28;20037;-86
2022/09/13 14:53:54;;;;;;;5.50;2.00;;;;;;;;;;5032563;28;20033;-87
2022/09/13 14:56:31;;;;;;;5.97;2.72;;;;;;;;;;4999256;28;20033;-87
2022/09/13 14:58:58;;;;;;;6.68;2.65;;;;;;;;;;5000419;28;20045;-87
2022/09/13 15:01:34;;;;;;;5.88;2.17;;;;;;;;;;4980353;28;20030;-89
2022/09/13 15:04:03;;;;;;;5.63;2.33;;;;;;;;;;4980632;28;20038;-87
2022/09/13 15:06:39;;;;;;;4.65;2.10;;;;;;;;;;4980460;28;20046;-88
2022/09/13 15:09:10;;;;;;;3.67;1.83;;;;;;;;;;4980561;28;20026;-88
2022/09/13 15:11:52;;;;;;;8.35;2.90;;;;;;;;;;4996384;28;20404;-88
2022/09/13 15:14:29;;;;;;;8.70;3.50;;;;;;;;;;5012820;28;20032;-87
2022/09/13 15:17:09;;;;;;;4.40;2.15;;;;;;;;;;4996344;28;20037;-87